Terminal Aerodrome Forecast
Issued by NWS Wilmington, OH

Home | Current Version | Previous Version | Text Only | Print | Product List | Glossary On
Versions: 1 2 3 4 5 6 7 8 9 10 11 12 13 14 15 16 17 18 19 20 21 22
228
FTUS41 KILN 011738
TAFILN
TAF
KILN 011738Z 0118/0218 24022G32KT P6SM OVC025
     FM012000 27023G35KT P6SM VCSH OVC020
     FM020300 28021G40KT P6SM VCSH OVC035
     FM020800 29015G24KT P6SM OVC025
     FM021100 28011KT P6SM BKN025
     FM021400 28010G18KT P6SM SCT025=

USA.gov is the U.S. government's official web portal to all federal, state and local government web resources and services.